sensor_id;sensor_type;location;lat;lon;timestamp;P1;durP1;ratioP1;P2;durP2;ratioP2
22030;SDS011;11179;52.106;21.024;2023-06-26T00:00:11;15.53;;;8.20;;
22030;SDS011;11179;52.106;21.024;2023-06-26T00:02:37;17.20;;;8.77;;
22030;SDS011;11179;52.106;21.024;2023-06-26T00:05:03;16.17;;;9.47;;
22030;SDS011;11179;52.106;21.024;2023-06-26T00:07:29;20.37;;;10.20;;
22030;SDS011;11179;52.106;21.024;2023-06-26T00:09:55;17.43;;;9.03;;
22030;SDS011;11179;52.106;21.024;2023-06-26T00:12:21;18.23;;;8.40;;
22030;SDS011;11179;52.106;21.024;2023-06-26T00:14:47;14.93;;;8.70;;
22030;SDS011;11179;52.106;21.024;2023-06-26T00:17:12;16.00;;;9.00;;
22030;SDS011;11179;52.106;21.024;2023-06-26T00:19:37;16.43;;;8.10;;
22030;SDS011;11179;52.106;21.024;2023-06-26T00:22:03;16.83;;;8.10;;
22030;SDS011;11179;52.106;21.024;2023-06-26T00:24:28;18.00;;;8.90;;
22030;SDS011;11179;52.106;21.024;2023-06-26T00:26:54;19.27;;;9.43;;
22030;SDS011;11179;52.106;21.024;2023-06-26T00:29:19;16.80;;;8.70;;
22030;SDS011;11179;52.106;21.024;2023-06-26T00:31:44;18.03;;;8.87;;
22030;SDS011;11179;52.106;21.024;2023-06-26T00:34:10;14.90;;;8.50;;
22030;SDS011;11179;52.106;21.024;2023-06-26T00:36:35;18.00;;;9.57;;
22030;SDS011;11179;52.106;21.024;2023-06-26T00:39:00;16.30;;;8.07;;
22030;SDS011;11179;52.106;21.024;2023-06-26T00:41:25;17.33;;;8.97;;
22030;SDS011;11179;52.106;21.024;2023-06-26T00:43:51;18.70;;;7.73;;
22030;SDS011;11179;52.106;21.024;2023-06-26T00:46:16;15.97;;;8.60;;
22030;SDS011;11179;52.106;21.024;2023-06-26T00:48:43;13.43;;;8.10;;
22030;SDS011;11179;52.106;21.024;2023-06-26T00:51:09;19.63;;;9.03;;
22030;SDS011;11179;52.106;21.024;2023-06-26T00:53:35;16.73;;;8.57;;
22030;SDS011;11179;52.106;21.024;2023-06-26T00:56:00;18.80;;;8.50;;
22030;SDS011;11179;52.106;21.024;2023-06-26T00:58:27;14.83;;;7.90;;
22030;SDS011;11179;52.106;21.024;2023-06-26T01:00:53;19.83;;;8.73;;
22030;SDS011;11179;52.106;21.024;2023-06-26T01:03:24;15.73;;;8.20;;
22030;SDS011;11179;52.106;21.024;2023-06-26T01:05:54;18.27;;;8.57;;
22030;SDS011;11179;52.106;21.024;2023-06-26T01:08:23;15.00;;;8.00;;
22030;SDS011;11179;52.106;21.024;2023-06-26T01:10:49;14.43;;;8.20;;
22030;SDS011;11179;52.106;21.024;2023-06-26T01:13:14;13.90;;;8.43;;
22030;SDS011;11179;52.106;21.024;2023-06-26T01:15:41;19.60;;;9.03;;
22030;SDS011;11179;52.106;21.024;2023-06-26T01:18:07;16.23;;;8.53;;
22030;SDS011;11179;52.106;21.024;2023-06-26T01:20:34;14.73;;;7.70;;
22030;SDS011;11179;52.106;21.024;2023-06-26T01:23:22;19.73;;;8.63;;
22030;SDS011;11179;52.106;21.024;2023-06-26T01:28:26;12.80;;;6.70;;
22030;SDS011;11179;52.106;21.024;2023-06-26T01:30:53;17.17;;;7.53;;
22030;SDS011;11179;52.106;21.024;2023-06-26T01:33:18;14.57;;;7.00;;
22030;SDS011;11179;52.106;21.024;2023-06-26T01:35:45;14.40;;;7.50;;
22030;SDS011;11179;52.106;21.024;2023-06-26T01:38:18;20.53;;;9.20;;
22030;SDS011;11179;52.106;21.024;2023-06-26T01:40:45;180.77;;;24.53;;
22030;SDS011;11179;52.106;21.024;2023-06-26T01:43:27;21.83;;;8.17;;
22030;SDS011;11179;52.106;21.024;2023-06-26T01:46:11;15.77;;;7.27;;
22030;SDS011;11179;52.106;21.024;2023-06-26T01:49:36;27.37;;;7.30;;
22030;SDS011;11179;52.106;21.024;2023-06-26T01:51:45;14.40;;;7.50;;
22030;SDS011;11179;52.106;21.024;2023-06-26T01:54:19;16.73;;;8.20;;
22030;SDS011;11179;52.106;21.024;2023-06-26T01:56:49;17.47;;;8.27;;
22030;SDS011;11179;52.106;21.024;2023-06-26T01:59:17;16.23;;;8.17;;
22030;SDS011;11179;52.106;21.024;2023-06-26T02:01:44;26.30;;;9.60;;
22030;SDS011;11179;52.106;21.024;2023-06-26T02:04:09;217.17;;;18.53;;
22030;SDS011;11179;52.106;21.024;2023-06-26T02:06:35;1999.90;;;999.90;;
22030;SDS011;11179;52.106;21.024;2023-06-26T02:09:00;17.90;;;7.17;;
22030;SDS011;11179;52.106;21.024;2023-06-26T02:11:25;17.07;;;8.83;;
22030;SDS011;11179;52.106;21.024;2023-06-26T02:13:51;16.53;;;8.83;;
22030;SDS011;11179;52.106;21.024;2023-06-26T02:16:16;104.33;;;18.63;;
22030;SDS011;11179;52.106;21.024;2023-06-26T02:18:41;246.53;;;107.73;;
22030;SDS011;11179;52.106;21.024;2023-06-26T02:21:07;13.00;;;7.77;;
22030;SDS011;11179;52.106;21.024;2023-06-26T02:23:32;1999.90;;;999.90;;
22030;SDS011;11179;52.106;21.024;2023-06-26T02:25:58;1999.90;;;999.90;;
22030;SDS011;11179;52.106;21.024;2023-06-26T02:28:23;1999.90;;;999.90;;
22030;SDS011;11179;52.106;21.024;2023-06-26T02:30:48;1999.90;;;999.90;;
22030;SDS011;11179;52.106;21.024;2023-06-26T02:33:13;1999.90;;;999.90;;
22030;SDS011;11179;52.106;21.024;2023-06-26T02:35:39;1999.90;;;999.90;;
22030;SDS011;11179;52.106;21.024;2023-06-26T02:38:04;1999.90;;;999.90;;
22030;SDS011;11179;52.106;21.024;2023-06-26T02:40:29;1999.90;;;999.90;;
22030;SDS011;11179;52.106;21.024;2023-06-26T02:42:55;1999.90;;;999.90;;
22030;SDS011;11179;52.106;21.024;2023-06-26T02:45:20;1999.90;;;999.90;;
22030;SDS011;11179;52.106;21.024;2023-06-26T02:47:45;1999.90;;;999.90;;
22030;SDS011;11179;52.106;21.024;2023-06-26T02:50:11;1999.90;;;999.90;;
22030;SDS011;11179;52.106;21.024;2023-06-26T02:52:36;28.30;;;11.07;;
22030;SDS011;11179;52.106;21.024;2023-06-26T02:55:01;15.30;;;8.43;;
22030;SDS011;11179;52.106;21.024;2023-06-26T02:57:26;16.90;;;7.53;;
22030;SDS011;11179;52.106;21.024;2023-06-26T02:59:52;16.47;;;8.10;;
22030;SDS011;11179;52.106;21.024;2023-06-26T03:02:17;15.23;;;9.00;;
22030;SDS011;11179;52.106;21.024;2023-06-26T03:04:42;17.20;;;8.00;;
22030;SDS011;11179;52.106;21.024;2023-06-26T03:07:08;14.53;;;7.07;;
22030;SDS011;11179;52.106;21.024;2023-06-26T03:09:33;63.63;;;9.73;;
22030;SDS011;11179;52.106;21.024;2023-06-26T03:11:59;175.63;;;126.10;;
22030;SDS011;11179;52.106;21.024;2023-06-26T03:14:24;92.90;;;16.80;;
22030;SDS011;11179;52.106;21.024;2023-06-26T03:16:49;109.67;;;17.53;;
22030;SDS011;11179;52.106;21.024;2023-06-26T03:19:17;69.60;;;8.40;;
22030;SDS011;11179;52.106;21.024;2023-06-26T03:21:43;57.40;;;8.53;;
22030;SDS011;11179;52.106;21.024;2023-06-26T03:24:08;51.97;;;9.17;;
22030;SDS011;11179;52.106;21.024;2023-06-26T03:26:33;33.20;;;9.00;;
22030;SDS011;11179;52.106;21.024;2023-06-26T03:28:59;44.03;;;9.43;;
22030;SDS011;11179;52.106;21.024;2023-06-26T03:31:24;72.00;;;10.30;;
22030;SDS011;11179;52.106;21.024;2023-06-26T03:33:49;127.23;;;29.20;;
22030;SDS011;11179;52.106;21.024;2023-06-26T03:36:14;86.67;;;12.27;;
22030;SDS011;11179;52.106;21.024;2023-06-26T03:38:40;17.53;;;8.53;;
22030;SDS011;11179;52.106;21.024;2023-06-26T03:41:06;23.10;;;9.53;;
22030;SDS011;11179;52.106;21.024;2023-06-26T03:43:31;15.50;;;7.87;;
22030;SDS011;11179;52.106;21.024;2023-06-26T03:45:56;19.07;;;8.33;;
22030;SDS011;11179;52.106;21.024;2023-06-26T03:48:22;20.87;;;8.47;;
22030;SDS011;11179;52.106;21.024;2023-06-26T03:50:47;20.10;;;8.80;;
22030;SDS011;11179;52.106;21.024;2023-06-26T03:53:12;20.10;;;9.57;;
22030;SDS011;11179;52.106;21.024;2023-06-26T03:55:38;17.07;;;8.50;;
22030;SDS011;11179;52.106;21.024;2023-06-26T03:58:03;22.40;;;8.90;;
22030;SDS011;11179;52.106;21.024;2023-06-26T04:00:29;17.50;;;8.90;;
22030;SDS011;11179;52.106;21.024;2023-06-26T04:02:55;26.90;;;9.73;;
22030;SDS011;11179;52.106;21.024;2023-06-26T04:05:20;13.10;;;7.80;;
22030;SDS011;11179;52.106;21.024;2023-06-26T04:07:46;15.27;;;8.40;;
22030;SDS011;11179;52.106;21.024;2023-06-26T04:10:15;16.13;;;8.50;;
22030;SDS011;11179;52.106;21.024;2023-06-26T04:12:40;14.80;;;8.10;;
22030;SDS011;11179;52.106;21.024;2023-06-26T04:15:05;17.33;;;8.70;;
22030;SDS011;11179;52.106;21.024;2023-06-26T04:17:31;18.90;;;8.77;;
22030;SDS011;11179;52.106;21.024;2023-06-26T04:19:56;15.53;;;8.60;;
22030;SDS011;11179;52.106;21.024;2023-06-26T04:22:22;20.87;;;8.60;;
22030;SDS011;11179;52.106;21.024;2023-06-26T04:24:47;15.40;;;8.03;;
22030;SDS011;11179;52.106;21.024;2023-06-26T04:27:12;17.67;;;9.03;;
22030;SDS011;11179;52.106;21.024;2023-06-26T04:29:41;14.97;;;7.63;;
22030;SDS011;11179;52.106;21.024;2023-06-26T04:32:07;12.87;;;7.30;;
22030;SDS011;11179;52.106;21.024;2023-06-26T04:34:32;19.70;;;9.13;;
22030;SDS011;11179;52.106;21.024;2023-06-26T04:36:59;15.90;;;8.43;;
22030;SDS011;11179;52.106;21.024;2023-06-26T04:39:24;21.70;;;9.37;;
22030;SDS011;11179;52.106;21.024;2023-06-26T04:41:50;17.10;;;7.97;;
22030;SDS011;11179;52.106;21.024;2023-06-26T04:44:15;24.97;;;9.03;;
22030;SDS011;11179;52.106;21.024;2023-06-26T04:46:40;21.33;;;9.13;;
22030;SDS011;11179;52.106;21.024;2023-06-26T04:49:06;22.90;;;8.60;;
22030;SDS011;11179;52.106;21.024;2023-06-26T04:51:31;50.83;;;9.10;;
22030;SDS011;11179;52.106;21.024;2023-06-26T04:53:56;16.97;;;8.23;;
22030;SDS011;11179;52.106;21.024;2023-06-26T04:56:22;16.73;;;8.83;;
22030;SDS011;11179;52.106;21.024;2023-06-26T04:58:47;22.50;;;8.27;;
22030;SDS011;11179;52.106;21.024;2023-06-26T05:01:12;17.43;;;9.30;;
22030;SDS011;11179;52.106;21.024;2023-06-26T05:03:40;22.17;;;8.60;;
22030;SDS011;11179;52.106;21.024;2023-06-26T05:06:06;35.50;;;9.83;;
22030;SDS011;11179;52.106;21.024;2023-06-26T05:08:31;14.57;;;7.47;;
22030;SDS011;11179;52.106;21.024;2023-06-26T05:10:56;14.90;;;8.90;;
22030;SDS011;11179;52.106;21.024;2023-06-26T05:13:23;16.30;;;8.63;;
22030;SDS011;11179;52.106;21.024;2023-06-26T05:15:49;17.40;;;8.90;;
22030;SDS011;11179;52.106;21.024;2023-06-26T05:18:15;168.33;;;158.43;;
22030;SDS011;11179;52.106;21.024;2023-06-26T05:20:41;65.43;;;58.43;;
22030;SDS011;11179;52.106;21.024;2023-06-26T05:23:06;1999.90;;;999.90;;
22030;SDS011;11179;52.106;21.024;2023-06-26T05:25:32;18.20;;;8.33;;
22030;SDS011;11179;52.106;21.024;2023-06-26T05:28:01;27.70;;;8.77;;
22030;SDS011;11179;52.106;21.024;2023-06-26T05:30:27;25.53;;;8.90;;
22030;SDS011;11179;52.106;21.024;2023-06-26T05:32:53;23.80;;;9.27;;
22030;SDS011;11179;52.106;21.024;2023-06-26T05:35:22;21.33;;;8.20;;
22030;SDS011;11179;52.106;21.024;2023-06-26T05:37:48;23.00;;;9.03;;
22030;SDS011;11179;52.106;21.024;2023-06-26T05:40:15;25.53;;;7.73;;
22030;SDS011;11179;52.106;21.024;2023-06-26T05:42:44;19.50;;;8.27;;
22030;SDS011;11179;52.106;21.024;2023-06-26T05:45:09;24.47;;;8.37;;
22030;SDS011;11179;52.106;21.024;2023-06-26T05:47:35;22.57;;;9.00;;
22030;SDS011;11179;52.106;21.024;2023-06-26T05:50:01;31.20;;;8.87;;
22030;SDS011;11179;52.106;21.024;2023-06-26T05:52:26;16.60;;;7.83;;
22030;SDS011;11179;52.106;21.024;2023-06-26T05:54:52;18.83;;;8.53;;
22030;SDS011;11179;52.106;21.024;2023-06-26T05:57:18;17.03;;;6.90;;
22030;SDS011;11179;52.106;21.024;2023-06-26T05:59:44;20.97;;;8.17;;
22030;SDS011;11179;52.106;21.024;2023-06-26T06:02:10;13.57;;;6.47;;
22030;SDS011;11179;52.106;21.024;2023-06-26T06:04:36;18.00;;;7.60;;
22030;SDS011;11179;52.106;21.024;2023-06-26T06:07:02;18.80;;;8.27;;
22030;SDS011;11179;52.106;21.024;2023-06-26T06:09:28;19.60;;;7.60;;
22030;SDS011;11179;52.106;21.024;2023-06-26T06:11:53;12.83;;;6.77;;
22030;SDS011;11179;52.106;21.024;2023-06-26T06:14:18;12.60;;;7.07;;
22030;SDS011;11179;52.106;21.024;2023-06-26T06:16:44;13.53;;;6.70;;
22030;SDS011;11179;52.106;21.024;2023-06-26T06:19:09;15.33;;;6.23;;
22030;SDS011;11179;52.106;21.024;2023-06-26T06:21:36;12.30;;;7.00;;
22030;SDS011;11179;52.106;21.024;2023-06-26T06:24:01;14.57;;;6.77;;
22030;SDS011;11179;52.106;21.024;2023-06-26T06:26:27;14.93;;;6.47;;
22030;SDS011;11179;52.106;21.024;2023-06-26T06:28:52;13.73;;;6.33;;
22030;SDS011;11179;52.106;21.024;2023-06-26T06:31:18;10.80;;;5.50;;
22030;SDS011;11179;52.106;21.024;2023-06-26T06:33:43;13.13;;;5.10;;
22030;SDS011;11179;52.106;21.024;2023-06-26T06:36:08;16.83;;;6.40;;
22030;SDS011;11179;52.106;21.024;2023-06-26T06:38:34;13.20;;;5.83;;
22030;SDS011;11179;52.106;21.024;2023-06-26T06:40:59;16.20;;;5.90;;
22030;SDS011;11179;52.106;21.024;2023-06-26T06:43:25;11.77;;;6.47;;
22030;SDS011;11179;52.106;21.024;2023-06-26T06:45:50;13.00;;;5.60;;
22030;SDS011;11179;52.106;21.024;2023-06-26T06:48:15;12.73;;;6.03;;
22030;SDS011;11179;52.106;21.024;2023-06-26T06:50:41;12.83;;;5.43;;
22030;SDS011;11179;52.106;21.024;2023-06-26T06:53:07;10.53;;;4.83;;
22030;SDS011;11179;52.106;21.024;2023-06-26T06:55:32;9.97;;;5.40;;
22030;SDS011;11179;52.106;21.024;2023-06-26T06:57:58;12.57;;;5.47;;
22030;SDS011;11179;52.106;21.024;2023-06-26T07:00:23;13.40;;;5.47;;
22030;SDS011;11179;52.106;21.024;2023-06-26T07:02:48;13.13;;;5.07;;
22030;SDS011;11179;52.106;21.024;2023-06-26T07:05:14;10.30;;;4.67;;
22030;SDS011;11179;52.106;21.024;2023-06-26T07:07:39;11.03;;;5.17;;
22030;SDS011;11179;52.106;21.024;2023-06-26T07:10:08;14.67;;;6.00;;
22030;SDS011;11179;52.106;21.024;2023-06-26T07:12:35;12.70;;;5.50;;
22030;SDS011;11179;52.106;21.024;2023-06-26T07:15:01;9.90;;;4.60;;
22030;SDS011;11179;52.106;21.024;2023-06-26T07:17:29;10.17;;;5.13;;
22030;SDS011;11179;52.106;21.024;2023-06-26T07:19:55;12.83;;;5.17;;
22030;SDS011;11179;52.106;21.024;2023-06-26T07:22:24;9.33;;;4.80;;
22030;SDS011;11179;52.106;21.024;2023-06-26T07:24:49;12.47;;;5.33;;
22030;SDS011;11179;52.106;21.024;2023-06-26T07:27:15;8.20;;;4.70;;
22030;SDS011;11179;52.106;21.024;2023-06-26T07:29:41;17.03;;;5.07;;
22030;SDS011;11179;52.106;21.024;2023-06-26T07:32:06;9.77;;;4.50;;
22030;SDS011;11179;52.106;21.024;2023-06-26T07:34:32;11.10;;;4.80;;
22030;SDS011;11179;52.106;21.024;2023-06-26T07:36:57;13.50;;;4.90;;
22030;SDS011;11179;52.106;21.024;2023-06-26T07:39:23;11.50;;;4.20;;
22030;SDS011;11179;52.106;21.024;2023-06-26T07:41:48;10.20;;;4.53;;
22030;SDS011;11179;52.106;21.024;2023-06-26T07:44:13;21.53;;;5.23;;
22030;SDS011;11179;52.106;21.024;2023-06-26T07:46:39;10.20;;;5.10;;
22030;SDS011;11179;52.106;21.024;2023-06-26T07:49:04;14.27;;;5.70;;
22030;SDS011;11179;52.106;21.024;2023-06-26T07:51:30;31.00;;;5.30;;
22030;SDS011;11179;52.106;21.024;2023-06-26T07:53:55;14.10;;;4.50;;
22030;SDS011;11179;52.106;21.024;2023-06-26T07:56:21;21.53;;;5.00;;
22030;SDS011;11179;52.106;21.024;2023-06-26T07:58:46;10.13;;;4.60;;
22030;SDS011;11179;52.106;21.024;2023-06-26T08:01:11;10.70;;;4.67;;
22030;SDS011;11179;52.106;21.024;2023-06-26T08:03:37;17.17;;;4.37;;
22030;SDS011;11179;52.106;21.024;2023-06-26T08:06:02;8.77;;;4.70;;
22030;SDS011;11179;52.106;21.024;2023-06-26T08:08:28;9.67;;;4.67;;
22030;SDS011;11179;52.106;21.024;2023-06-26T08:10:54;10.17;;;4.67;;
22030;SDS011;11179;52.106;21.024;2023-06-26T08:13:19;10.37;;;5.13;;
22030;SDS011;11179;52.106;21.024;2023-06-26T08:15:44;12.93;;;5.20;;
22030;SDS011;11179;52.106;21.024;2023-06-26T08:18:10;15.40;;;4.83;;
22030;SDS011;11179;52.106;21.024;2023-06-26T08:20:35;14.30;;;5.43;;
22030;SDS011;11179;52.106;21.024;2023-06-26T08:23:02;9.63;;;4.17;;
22030;SDS011;11179;52.106;21.024;2023-06-26T08:25:29;8.60;;;4.00;;
22030;SDS011;11179;52.106;21.024;2023-06-26T08:27:54;9.10;;;4.80;;
22030;SDS011;11179;52.106;21.024;2023-06-26T08:30:21;13.37;;;5.10;;
22030;SDS011;11179;52.106;21.024;2023-06-26T08:32:47;8.83;;;4.40;;
22030;SDS011;11179;52.106;21.024;2023-06-26T08:35:13;10.90;;;4.50;;
22030;SDS011;11179;52.106;21.024;2023-06-26T08:37:38;8.43;;;4.30;;
22030;SDS011;11179;52.106;21.024;2023-06-26T08:40:04;10.90;;;3.70;;
22030;SDS011;11179;52.106;21.024;2023-06-26T08:42:31;9.80;;;4.50;;
22030;SDS011;11179;52.106;21.024;2023-06-26T08:44:56;9.70;;;4.13;;
22030;SDS011;11179;52.106;21.024;2023-06-26T08:47:22;9.00;;;4.30;;
22030;SDS011;11179;52.106;21.024;2023-06-26T08:49:51;22.10;;;4.60;;
22030;SDS011;11179;52.106;21.024;2023-06-26T08:52:29;9.07;;;3.83;;
22030;SDS011;11179;52.106;21.024;2023-06-26T08:54:58;10.20;;;3.33;;
22030;SDS011;11179;52.106;21.024;2023-06-26T08:57:26;8.20;;;3.50;;
22030;SDS011;11179;52.106;21.024;2023-06-26T08:59:53;7.60;;;3.60;;
22030;SDS011;11179;52.106;21.024;2023-06-26T09:02:18;9.47;;;3.70;;
22030;SDS011;11179;52.106;21.024;2023-06-26T09:04:46;7.33;;;3.20;;
22030;SDS011;11179;52.106;21.024;2023-06-26T09:07:13;7.90;;;3.97;;
22030;SDS011;11179;52.106;21.024;2023-06-26T09:09:38;8.23;;;4.20;;
22030;SDS011;11179;52.106;21.024;2023-06-26T09:12:04;8.80;;;4.10;;
22030;SDS011;11179;52.106;21.024;2023-06-26T09:14:29;9.53;;;4.23;;
22030;SDS011;11179;52.106;21.024;2023-06-26T09:16:55;9.80;;;3.73;;
22030;SDS011;11179;52.106;21.024;2023-06-26T09:19:20;7.10;;;3.50;;
22030;SDS011;11179;52.106;21.024;2023-06-26T09:21:46;9.87;;;4.57;;
22030;SDS011;11179;52.106;21.024;2023-06-26T09:24:15;9.17;;;4.50;;
22030;SDS011;11179;52.106;21.024;2023-06-26T09:26:41;10.70;;;4.07;;
22030;SDS011;11179;52.106;21.024;2023-06-26T09:29:08;11.70;;;4.30;;
22030;SDS011;11179;52.106;21.024;2023-06-26T09:31:35;8.90;;;4.03;;
22030;SDS011;11179;52.106;21.024;2023-06-26T09:34:02;10.17;;;4.10;;
22030;SDS011;11179;52.106;21.024;2023-06-26T09:36:30;12.13;;;3.97;;
22030;SDS011;11179;52.106;21.024;2023-06-26T09:38:58;8.00;;;3.87;;
22030;SDS011;11179;52.106;21.024;2023-06-26T09:41:25;7.73;;;3.80;;
22030;SDS011;11179;52.106;21.024;2023-06-26T09:43:50;11.30;;;4.73;;
22030;SDS011;11179;52.106;21.024;2023-06-26T09:46:16;10.07;;;5.13;;
22030;SDS011;11179;52.106;21.024;2023-06-26T09:48:43;9.30;;;4.47;;
22030;SDS011;11179;52.106;21.024;2023-06-26T09:51:09;8.00;;;4.00;;
22030;SDS011;11179;52.106;21.024;2023-06-26T09:53:34;8.07;;;4.00;;
22030;SDS011;11179;52.106;21.024;2023-06-26T09:56:05;8.10;;;4.20;;
22030;SDS011;11179;52.106;21.024;2023-06-26T09:58:31;6.87;;;3.50;;
22030;SDS011;11179;52.106;21.024;2023-06-26T10:00:58;10.13;;;4.07;;
22030;SDS011;11179;52.106;21.024;2023-06-26T10:03:23;13.77;;;4.63;;
22030;SDS011;11179;52.106;21.024;2023-06-26T10:05:48;8.53;;;3.77;;
22030;SDS011;11179;52.106;21.024;2023-06-26T10:08:15;9.00;;;3.83;;
22030;SDS011;11179;52.106;21.024;2023-06-26T10:10:42;8.87;;;4.13;;
22030;SDS011;11179;52.106;21.024;2023-06-26T10:13:08;10.37;;;4.10;;
22030;SDS011;11179;52.106;21.024;2023-06-26T10:15:40;13.63;;;4.90;;
22030;SDS011;11179;52.106;21.024;2023-06-26T10:18:09;10.30;;;4.80;;
22030;SDS011;11179;52.106;21.024;2023-06-26T10:20:36;8.47;;;4.30;;
22030;SDS011;11179;52.106;21.024;2023-06-26T10:23:01;9.80;;;4.40;;
22030;SDS011;11179;52.106;21.024;2023-06-26T10:25:30;10.80;;;3.93;;
22030;SDS011;11179;52.106;21.024;2023-06-26T10:27:57;19.93;;;4.97;;
22030;SDS011;11179;52.106;21.024;2023-06-26T10:30:26;10.60;;;4.73;;
22030;SDS011;11179;52.106;21.024;2023-06-26T10:32:54;10.27;;;4.90;;
22030;SDS011;11179;52.106;21.024;2023-06-26T10:35:20;8.77;;;4.07;;
22030;SDS011;11179;52.106;21.024;2023-06-26T10:37:47;8.37;;;4.40;;
22030;SDS011;11179;52.106;21.024;2023-06-26T10:40:14;7.60;;;3.80;;
22030;SDS011;11179;52.106;21.024;2023-06-26T10:42:45;9.70;;;4.50;;
22030;SDS011;11179;52.106;21.024;2023-06-26T10:47:39;8.70;;;4.17;;
22030;SDS011;11179;52.106;21.024;2023-06-26T10:53:13;16.40;;;4.20;;
22030;SDS011;11179;52.106;21.024;2023-06-26T10:55:50;9.50;;;4.00;;
22030;SDS011;11179;52.106;21.024;2023-06-26T11:01:07;9.47;;;4.90;;
22030;SDS011;11179;52.106;21.024;2023-06-26T11:03:39;9.00;;;4.00;;
22030;SDS011;11179;52.106;21.024;2023-06-26T11:06:18;8.10;;;3.93;;
22030;SDS011;11179;52.106;21.024;2023-06-26T11:08:46;10.03;;;4.57;;
22030;SDS011;11179;52.106;21.024;2023-06-26T11:11:12;9.57;;;4.50;;
22030;SDS011;11179;52.106;21.024;2023-06-26T11:13:39;9.20;;;4.27;;
22030;SDS011;11179;52.106;21.024;2023-06-26T11:16:05;8.17;;;4.40;;
22030;SDS011;11179;52.106;21.024;2023-06-26T11:18:31;9.73;;;4.63;;
22030;SDS011;11179;52.106;21.024;2023-06-26T11:21:03;11.03;;;4.53;;
22030;SDS011;11179;52.106;21.024;2023-06-26T11:23:30;8.17;;;4.50;;
22030;SDS011;11179;52.106;21.024;2023-06-26T11:26:00;12.23;;;4.37;;
22030;SDS011;11179;52.106;21.024;2023-06-26T11:28:38;8.00;;;3.90;;
22030;SDS011;11179;52.106;21.024;2023-06-26T11:31:03;8.53;;;3.90;;
22030;SDS011;11179;52.106;21.024;2023-06-26T11:33:28;8.03;;;4.20;;
22030;SDS011;11179;52.106;21.024;2023-06-26T11:35:54;9.83;;;4.67;;
22030;SDS011;11179;52.106;21.024;2023-06-26T11:38:19;8.37;;;4.83;;
22030;SDS011;11179;52.106;21.024;2023-06-26T11:40:45;11.97;;;4.80;;
22030;SDS011;11179;52.106;21.024;2023-06-26T11:43:10;8.87;;;4.40;;
22030;SDS011;11179;52.106;21.024;2023-06-26T11:45:35;8.60;;;4.00;;
22030;SDS011;11179;52.106;21.024;2023-06-26T11:48:01;11.20;;;4.40;;
22030;SDS011;11179;52.106;21.024;2023-06-26T11:50:27;6.60;;;3.60;;
22030;SDS011;11179;52.106;21.024;2023-06-26T11:52:56;6.90;;;3.60;;
22030;SDS011;11179;52.106;21.024;2023-06-26T11:55:23;10.53;;;4.17;;
22030;SDS011;11179;52.106;21.024;2023-06-26T11:57:49;9.00;;;4.07;;
22030;SDS011;11179;52.106;21.024;2023-06-26T12:00:16;11.10;;;4.10;;
22030;SDS011;11179;52.106;21.024;2023-06-26T12:02:42;9.10;;;4.07;;
22030;SDS011;11179;52.106;21.024;2023-06-26T12:05:09;9.37;;;4.10;;
22030;SDS011;11179;52.106;21.024;2023-06-26T12:07:36;13.87;;;4.93;;
22030;SDS011;11179;52.106;21.024;2023-06-26T12:10:02;7.10;;;3.47;;
22030;SDS011;11179;52.106;21.024;2023-06-26T12:12:29;7.60;;;3.30;;
22030;SDS011;11179;52.106;21.024;2023-06-26T12:14:56;9.00;;;3.90;;
22030;SDS011;11179;52.106;21.024;2023-06-26T12:17:22;9.03;;;3.83;;
22030;SDS011;11179;52.106;21.024;2023-06-26T12:19:50;7.93;;;3.67;;
22030;SDS011;11179;52.106;21.024;2023-06-26T12:22:16;7.00;;;3.20;;
22030;SDS011;11179;52.106;21.024;2023-06-26T12:24:42;9.67;;;3.97;;
22030;SDS011;11179;52.106;21.024;2023-06-26T12:27:09;9.23;;;4.43;;
22030;SDS011;11179;52.106;21.024;2023-06-26T12:29:36;7.73;;;4.67;;
22030;SDS011;11179;52.106;21.024;2023-06-26T12:32:02;7.67;;;3.63;;
22030;SDS011;11179;52.106;21.024;2023-06-26T12:34:29;10.97;;;4.33;;
22030;SDS011;11179;52.106;21.024;2023-06-26T12:36:59;7.10;;;3.63;;
22030;SDS011;11179;52.106;21.024;2023-06-26T12:39:29;7.07;;;3.90;;
22030;SDS011;11179;52.106;21.024;2023-06-26T12:42:09;8.80;;;3.77;;
22030;SDS011;11179;52.106;21.024;2023-06-26T12:44:39;12.07;;;4.17;;
22030;SDS011;11179;52.106;21.024;2023-06-26T12:47:05;8.30;;;3.93;;
22030;SDS011;11179;52.106;21.024;2023-06-26T12:51:59;7.80;;;3.77;;
22030;SDS011;11179;52.106;21.024;2023-06-26T12:54:26;7.50;;;3.20;;
22030;SDS011;11179;52.106;21.024;2023-06-26T12:56:52;7.70;;;3.47;;
22030;SDS011;11179;52.106;21.024;2023-06-26T12:59:17;6.83;;;3.00;;
22030;SDS011;11179;52.106;21.024;2023-06-26T13:01:43;8.03;;;3.60;;
22030;SDS011;11179;52.106;21.024;2023-06-26T13:04:08;9.47;;;4.23;;
22030;SDS011;11179;52.106;21.024;2023-06-26T13:06:33;10.90;;;3.83;;
22030;SDS011;11179;52.106;21.024;2023-06-26T13:08:59;8.20;;;3.60;;
22030;SDS011;11179;52.106;21.024;2023-06-26T13:11:24;7.87;;;3.40;;
22030;SDS011;11179;52.106;21.024;2023-06-26T13:13:50;7.00;;;3.37;;
22030;SDS011;11179;52.106;21.024;2023-06-26T13:16:15;7.27;;;3.20;;
22030;SDS011;11179;52.106;21.024;2023-06-26T13:18:41;9.47;;;4.17;;
22030;SDS011;11179;52.106;21.024;2023-06-26T13:21:06;8.10;;;3.60;;
22030;SDS011;11179;52.106;21.024;2023-06-26T13:23:32;7.73;;;3.90;;
22030;SDS011;11179;52.106;21.024;2023-06-26T13:25:57;7.03;;;3.37;;
22030;SDS011;11179;52.106;21.024;2023-06-26T13:28:22;9.83;;;4.07;;
22030;SDS011;11179;52.106;21.024;2023-06-26T13:30:48;7.83;;;3.77;;
22030;SDS011;11179;52.106;21.024;2023-06-26T13:33:14;10.70;;;3.80;;
22030;SDS011;11179;52.106;21.024;2023-06-26T13:35:39;9.30;;;3.80;;
22030;SDS011;11179;52.106;21.024;2023-06-26T13:38:05;8.87;;;4.30;;
22030;SDS011;11179;52.106;21.024;2023-06-26T13:40:30;7.93;;;3.87;;
22030;SDS011;11179;52.106;21.024;2023-06-26T13:42:55;18.23;;;4.07;;
22030;SDS011;11179;52.106;21.024;2023-06-26T13:45:20;9.90;;;3.87;;
22030;SDS011;11179;52.106;21.024;2023-06-26T13:47:46;8.87;;;3.83;;
22030;SDS011;11179;52.106;21.024;2023-06-26T13:50:11;8.07;;;4.47;;
22030;SDS011;11179;52.106;21.024;2023-06-26T13:52:37;9.20;;;3.90;;
22030;SDS011;11179;52.106;21.024;2023-06-26T13:55:02;8.93;;;3.70;;
22030;SDS011;11179;52.106;21.024;2023-06-26T13:57:30;7.20;;;3.27;;
22030;SDS011;11179;52.106;21.024;2023-06-26T13:59:56;9.17;;;4.20;;
22030;SDS011;11179;52.106;21.024;2023-06-26T14:02:21;7.40;;;3.83;;
22030;SDS011;11179;52.106;21.024;2023-06-26T14:04:47;10.10;;;4.63;;
22030;SDS011;11179;52.106;21.024;2023-06-26T14:07:12;8.80;;;4.10;;
22030;SDS011;11179;52.106;21.024;2023-06-26T14:09:38;9.50;;;4.20;;
22030;SDS011;11179;52.106;21.024;2023-06-26T14:12:03;9.97;;;3.70;;
22030;SDS011;11179;52.106;21.024;2023-06-26T14:14:29;8.70;;;4.10;;
22030;SDS011;11179;52.106;21.024;2023-06-26T14:16:54;9.50;;;4.50;;
22030;SDS011;11179;52.106;21.024;2023-06-26T14:19:20;9.83;;;4.00;;
22030;SDS011;11179;52.106;21.024;2023-06-26T14:21:45;9.60;;;4.57;;
22030;SDS011;11179;52.106;21.024;2023-06-26T14:24:10;12.60;;;4.30;;
22030;SDS011;11179;52.106;21.024;2023-06-26T14:26:36;10.50;;;4.27;;
22030;SDS011;11179;52.106;21.024;2023-06-26T14:29:01;10.30;;;4.43;;
22030;SDS011;11179;52.106;21.024;2023-06-26T14:31:27;9.83;;;4.77;;